Fairfield, Montana
Current Conditions -  °F | °C
As of 3:53 AM on Saturday 01 Nov 2014 (Local Time) from KGTF Reporting Station
Clear Clear  
Wind Chill: 34°   Ceiling: Unl
Heat Index: 38°   Visibility: 10mi
Dew Point: 31°   Wind: 5mph
Humidity: 76%   Direction: 200°SSW
Pressure: 29.71"   Gusts: NA
Location:  47.61°N, 111.98°W
Report Text: KGTF 010953Z 20004KT 10SM CLR 03/M01 A2971 RMK AO2 SLP055 T00331006
Loading
Personal Weather Stations






























Interactive Weather Map
Tropical Storm Tracking
New forecast layout! Learn more

10-Day Weather Forecast

Advertisements
Track Severe Weather on mobile